createdAt,value
2022-11-23T00:00:35.784Z,4.82
2022-11-23T00:03:03.880Z,4.40
2022-11-23T00:05:33.077Z,5.13
2022-11-23T00:08:01.225Z,4.93
2022-11-23T00:10:29.210Z,5.38
2022-11-23T00:12:57.055Z,5.03
2022-11-23T00:15:24.860Z,5.45
2022-11-23T00:17:52.693Z,4.68
2022-11-23T00:20:20.794Z,5.45
2022-11-23T00:22:50.006Z,4.72
2022-11-23T00:25:18.018Z,5.30
2022-11-23T00:27:45.877Z,5.72
2022-11-23T00:30:14.585Z,5.03
2022-11-23T00:32:42.401Z,5.72
2022-11-23T00:35:10.605Z,5.72
2022-11-23T00:37:38.441Z,4.90
2022-11-23T00:40:09.191Z,5.28
2022-11-23T00:42:38.343Z,5.25
2022-11-23T00:45:07.270Z,5.17
2022-11-23T00:47:35.193Z,4.65
2022-11-23T00:50:03.040Z,5.90
2022-11-23T00:52:30.839Z,5.60
2022-11-23T00:54:58.865Z,6.22
2022-11-23T00:57:28.102Z,6.05
2022-11-23T00:59:55.978Z,5.43
2022-11-23T01:02:23.858Z,5.25
2022-11-23T01:04:51.686Z,5.97
2022-11-23T01:07:19.569Z,4.05
2022-11-23T01:09:47.475Z,4.70
2022-11-23T01:12:15.316Z,4.55
2022-11-23T01:14:44.556Z,5.43
2022-11-23T01:17:13.209Z,4.30
2022-11-23T01:19:41.067Z,4.45
2022-11-23T01:22:09.077Z,5.00
2022-11-23T01:24:37.047Z,3.95
2022-11-23T01:27:05.060Z,5.13
2022-11-23T01:29:33.190Z,4.57
2022-11-23T01:32:02.776Z,4.45
2022-11-23T01:34:30.602Z,4.70
2022-11-23T01:36:58.431Z,5.20
2022-11-23T01:39:26.500Z,4.35
2022-11-23T01:41:54.345Z,4.40
2022-11-23T01:44:28.369Z,4.07
2022-11-23T01:46:57.838Z,4.13
2022-11-23T01:49:29.192Z,3.40
2022-11-23T01:52:00.885Z,4.70
2022-11-23T01:54:33.661Z,4.10
2022-11-23T01:57:07.662Z,3.95
2022-11-23T01:59:36.531Z,3.78
2022-11-23T02:02:05.110Z,4.75
2022-11-23T02:04:38.626Z,4.60
2022-11-23T02:07:07.643Z,4.13
2022-11-23T02:09:37.683Z,4.28
2022-11-23T02:12:11.606Z,4.60
2022-11-23T02:14:39.608Z,4.57
2022-11-23T02:17:07.557Z,4.70
2022-11-23T02:19:48.532Z,4.72
2022-11-23T02:22:25.551Z,4.75
2022-11-23T02:24:55.251Z,5.50
2022-11-23T02:27:25.217Z,5.07
2022-11-23T02:29:54.116Z,5.50
2022-11-23T02:32:25.031Z,5.30
2022-11-23T02:34:52.917Z,5.60
2022-11-23T02:37:20.761Z,5.25
2022-11-23T02:39:51.047Z,6.15
2022-11-23T02:42:19.259Z,5.45
2022-11-23T02:44:59.861Z,5.25
2022-11-23T02:47:27.800Z,5.90
2022-11-23T02:49:55.667Z,5.70
2022-11-23T02:52:23.561Z,5.93
2022-11-23T02:54:51.409Z,5.18
2022-11-23T02:57:21.634Z,6.43
2022-11-23T03:02:18.617Z,8.85
2022-11-23T03:04:46.422Z,6.43
2022-11-23T03:07:14.326Z,7.50
2022-11-23T03:09:42.178Z,6.90
2022-11-23T03:12:10.153Z,5.90
2022-11-23T03:14:38.992Z,6.65
2022-11-23T03:17:08.169Z,6.93
2022-11-23T03:19:36.001Z,8.40
2022-11-23T03:22:04.655Z,6.32
2022-11-23T03:24:32.830Z,5.97
2022-11-23T03:27:00.853Z,6.57
2022-11-23T03:29:28.843Z,5.80
2022-11-23T03:31:57.098Z,5.97
2022-11-23T03:34:26.371Z,5.65
2022-11-23T03:36:54.192Z,5.60
2022-11-23T03:39:22.208Z,5.82
2022-11-23T03:41:50.255Z,4.93
2022-11-23T03:44:18.095Z,5.22
2022-11-23T03:46:46.150Z,5.68
2022-11-23T03:49:14.082Z,5.35
2022-11-23T03:51:43.384Z,5.72
2022-11-23T03:54:11.190Z,5.33
2022-11-23T03:56:39.213Z,5.60
2022-11-23T03:59:07.103Z,5.05
2022-11-23T04:01:35.085Z,4.63
2022-11-23T04:04:02.911Z,5.55
2022-11-23T04:06:30.721Z,5.72
2022-11-23T04:09:02.314Z,5.50
2022-11-23T04:11:30.495Z,5.18
2022-11-23T04:13:58.365Z,5.43
2022-11-23T04:16:26.197Z,5.18
2022-11-23T04:18:54.007Z,6.15
2022-11-23T04:21:21.854Z,5.75
2022-11-23T04:23:49.668Z,5.65
2022-11-23T04:26:18.936Z,5.10
2022-11-23T04:28:46.762Z,5.47
2022-11-23T04:31:14.663Z,5.85
2022-11-23T04:33:42.820Z,6.13
2022-11-23T04:36:10.890Z,5.68
2022-11-23T04:38:38.757Z,5.57
2022-11-23T04:41:06.712Z,5.45
2022-11-23T04:43:35.928Z,5.53
2022-11-23T04:46:03.717Z,5.33
2022-11-23T04:48:32.004Z,5.85
2022-11-23T04:50:59.978Z,5.70
2022-11-23T04:53:27.817Z,5.85
2022-11-23T04:55:55.663Z,5.47
2022-11-23T04:58:23.489Z,5.32
2022-11-23T05:00:52.724Z,5.65
2022-11-23T05:03:20.676Z,17.60
2022-11-23T05:05:48.485Z,18.75
2022-11-23T05:08:16.317Z,35.35
2022-11-23T05:10:44.868Z,22.88
2022-11-23T05:13:12.661Z,14.00
2022-11-23T05:15:40.594Z,7.03
2022-11-23T05:18:10.596Z,7.57
2022-11-23T05:20:38.785Z,6.35
2022-11-23T05:23:06.774Z,6.07
2022-11-23T05:25:34.597Z,5.78
2022-11-23T05:28:16.660Z,4.57
2022-11-23T05:30:50.401Z,5.10
2022-11-23T05:33:19.722Z,5.25
2022-11-23T05:35:47.545Z,4.50
2022-11-23T05:38:15.544Z,5.25
2022-11-23T05:40:43.362Z,4.95
2022-11-23T05:43:11.179Z,3.72
2022-11-23T05:45:39.025Z,4.22
2022-11-23T05:48:07.189Z,3.83
2022-11-23T05:50:36.477Z,4.10
2022-11-23T05:53:04.520Z,3.93
2022-11-23T05:55:32.869Z,4.55
2022-11-23T05:58:00.706Z,4.25
2022-11-23T06:00:28.532Z,4.30
2022-11-23T06:03:01.796Z,4.85
2022-11-23T06:05:30.043Z,4.03
2022-11-23T06:07:59.293Z,3.83
2022-11-23T06:10:27.458Z,3.73
2022-11-23T06:12:55.274Z,3.88
2022-11-23T06:15:26.240Z,4.00
2022-11-23T06:17:54.057Z,4.07
2022-11-23T06:20:21.845Z,3.25
2022-11-23T06:22:53.200Z,3.70
2022-11-23T06:25:23.006Z,3.80
2022-11-23T06:27:57.577Z,3.80
2022-11-23T06:30:25.956Z,4.32
2022-11-23T06:32:53.925Z,4.45
2022-11-23T06:35:21.910Z,4.13
2022-11-23T06:37:50.211Z,4.72
2022-11-23T06:40:18.731Z,4.25
2022-11-23T06:42:48.476Z,4.65
2022-11-23T06:45:16.522Z,4.18
2022-11-23T06:47:44.959Z,4.07
2022-11-23T06:50:14.681Z,4.20
2022-11-23T06:52:42.627Z,3.88
2022-11-23T06:55:10.689Z,4.05
2022-11-23T06:57:38.502Z,4.22
2022-11-23T07:00:09.514Z,4.20
2022-11-23T07:02:37.324Z,4.53
2022-11-23T07:05:05.546Z,4.43
2022-11-23T07:07:33.590Z,4.38
2022-11-23T07:10:06.640Z,4.10
2022-11-23T07:12:34.972Z,4.13
2022-11-23T07:15:02.793Z,3.55
2022-11-23T07:17:32.046Z,3.75
2022-11-23T07:19:59.921Z,4.13
2022-11-23T07:22:27.747Z,3.97
2022-11-23T07:24:55.570Z,3.65
2022-11-23T07:27:23.589Z,3.70
2022-11-23T07:29:51.506Z,3.53
2022-11-23T07:32:19.345Z,4.05
2022-11-23T07:34:48.716Z,3.83
2022-11-23T07:37:16.518Z,3.00
2022-11-23T07:40:00.304Z,3.40
2022-11-23T07:42:34.888Z,3.42
2022-11-23T07:45:04.459Z,3.00
2022-11-23T07:47:32.585Z,3.20
2022-11-23T07:50:01.872Z,3.20
2022-11-23T07:52:29.757Z,3.67
2022-11-23T07:54:57.560Z,3.65
2022-11-23T07:57:25.493Z,3.40
2022-11-23T07:59:53.405Z,3.60
2022-11-23T08:02:21.765Z,3.50
2022-11-23T08:04:49.626Z,3.03
2022-11-23T08:07:18.828Z,2.83
2022-11-23T08:09:46.966Z,3.13
2022-11-23T08:12:14.778Z,2.70
2022-11-23T08:14:42.633Z,2.92
2022-11-23T08:17:10.556Z,3.10
2022-11-23T08:19:38.425Z,3.28
2022-11-23T08:22:06.232Z,3.13
2022-11-23T08:24:35.722Z,2.90
2022-11-23T08:27:03.587Z,3.60
2022-11-23T08:29:31.629Z,3.00
2022-11-23T08:31:59.483Z,3.65
2022-11-23T08:34:27.467Z,2.70
2022-11-23T08:36:55.281Z,3.20
2022-11-23T08:39:23.095Z,3.33
2022-11-23T08:41:52.326Z,3.65
2022-11-23T08:44:20.123Z,3.17
2022-11-23T08:46:47.961Z,2.47
2022-11-23T08:49:15.897Z,2.67
2022-11-23T08:51:49.679Z,3.30
2022-11-23T08:54:17.962Z,3.38
2022-11-23T08:56:45.790Z,2.78
2022-11-23T08:59:15.103Z,3.30
2022-11-23T09:01:43.073Z,3.05
2022-11-23T09:04:12.332Z,2.72
2022-11-23T09:06:42.096Z,2.80
2022-11-23T09:09:11.020Z,2.72
2022-11-23T09:11:38.835Z,2.90
2022-11-23T09:14:06.792Z,3.40
2022-11-23T09:16:36.026Z,2.80
2022-11-23T09:19:03.913Z,3.00
2022-11-23T09:21:33.997Z,3.53
2022-11-23T09:24:01.796Z,4.07
2022-11-23T09:26:31.116Z,3.65
2022-11-23T09:28:58.946Z,3.42
2022-11-23T09:31:29.013Z,3.30
2022-11-23T09:33:58.302Z,3.33
2022-11-23T09:36:26.217Z,3.20
2022-11-23T09:38:56.966Z,3.55
2022-11-23T09:41:45.029Z,3.25
2022-11-23T09:44:21.095Z,2.80
2022-11-23T09:47:01.670Z,3.33
2022-11-23T09:49:37.349Z,3.58
2022-11-23T09:52:15.948Z,3.50
2022-11-23T09:54:46.407Z,3.17
2022-11-23T09:57:20.901Z,2.58
2022-11-23T09:59:55.082Z,2.70
2022-11-23T10:02:24.944Z,3.53
2022-11-23T10:04:55.044Z,2.92
2022-11-23T10:07:44.988Z,3.00
2022-11-23T10:10:28.311Z,3.67
2022-11-23T10:13:05.427Z,3.60
2022-11-23T10:15:39.205Z,3.08
2022-11-23T10:18:23.327Z,3.17
2022-11-23T10:21:00.598Z,4.20
2022-11-23T10:23:51.364Z,3.13
2022-11-23T10:26:21.181Z,2.72
2022-11-23T10:28:50.554Z,2.58
2022-11-23T10:31:19.908Z,2.35
2022-11-23T10:33:57.132Z,2.87
2022-11-23T10:36:26.527Z,2.25
2022-11-23T10:38:59.676Z,2.60
2022-11-23T10:41:27.800Z,2.58
2022-11-23T10:44:03.698Z,2.30
2022-11-23T10:46:38.417Z,2.65
2022-11-23T10:49:19.164Z,2.17
2022-11-23T10:51:54.615Z,2.35
2022-11-23T10:54:27.657Z,3.40
2022-11-23T10:56:56.578Z,2.60
2022-11-23T10:59:33.898Z,2.67
2022-11-23T11:02:10.448Z,3.30
2022-11-23T11:04:38.337Z,2.50
2022-11-23T11:07:29.715Z,2.83
2022-11-23T11:09:59.721Z,2.88
2022-11-23T11:12:28.980Z,2.63
2022-11-23T11:15:10.946Z,3.23
2022-11-23T11:17:40.016Z,3.88
2022-11-23T11:20:31.374Z,2.72
2022-11-23T11:23:03.837Z,3.95
2022-11-23T11:25:34.648Z,3.20
2022-11-23T11:28:05.534Z,3.45
2022-11-23T11:30:44.770Z,3.38
2022-11-23T11:33:19.214Z,3.50
2022-11-23T11:35:51.137Z,3.15
2022-11-23T11:38:27.552Z,3.78
2022-11-23T11:40:57.132Z,3.30
2022-11-23T11:43:37.802Z,2.95
2022-11-23T11:46:28.412Z,3.35
2022-11-23T11:49:01.416Z,3.97
2022-11-23T11:51:34.339Z,3.40
2022-11-23T11:54:13.259Z,3.13
2022-11-23T11:56:44.887Z,2.67
2022-11-23T11:59:19.143Z,2.53
2022-11-23T12:01:56.934Z,3.03
2022-11-23T12:04:30.378Z,3.10
2022-11-23T12:07:06.611Z,3.08
2022-11-23T12:09:40.396Z,3.20
2022-11-23T12:12:15.967Z,2.88
2022-11-23T12:14:45.071Z,3.22
2022-11-23T12:17:33.726Z,2.45
2022-11-23T12:20:11.902Z,2.67
2022-11-23T12:22:53.576Z,2.30
2022-11-23T12:25:33.225Z,2.88
2022-11-23T12:28:16.454Z,2.60
2022-11-23T12:30:52.822Z,2.95
2022-11-23T12:33:37.686Z,2.92
2022-11-23T12:36:23.778Z,2.70
2022-11-23T12:38:56.507Z,3.20
2022-11-23T12:41:40.623Z,2.90
2022-11-23T12:44:31.892Z,2.30
2022-11-23T12:47:05.137Z,3.00
2022-11-23T12:49:41.050Z,3.10
2022-11-23T12:52:28.457Z,3.15
2022-11-23T12:55:07.933Z,2.85
2022-11-23T12:57:43.418Z,3.20
2022-11-23T13:00:17.281Z,4.00
2022-11-23T13:03:13.853Z,3.00
2022-11-23T13:06:20.029Z,3.08
2022-11-23T13:09:13.437Z,3.05
2022-11-23T13:11:55.667Z,3.08
2022-11-23T13:14:31.565Z,2.72
2022-11-23T13:17:17.658Z,2.90
2022-11-23T13:20:09.058Z,3.05
2022-11-23T13:22:39.569Z,3.05
2022-11-23T13:25:23.948Z,3.28
2022-11-23T13:28:03.383Z,3.03
2022-11-23T13:30:59.244Z,2.67
2022-11-23T13:33:31.772Z,3.20
2022-11-23T13:36:08.734Z,3.05
2022-11-23T13:38:41.253Z,2.92
2022-11-23T13:41:57.777Z,2.90
2022-11-23T13:44:31.701Z,2.72
2022-11-23T13:47:20.221Z,2.72
2022-11-23T13:49:50.393Z,2.80
2022-11-23T13:55:21.380Z,2.95
2022-11-23T13:58:22.463Z,3.00
2022-11-23T14:00:52.025Z,3.35
2022-11-23T14:03:50.776Z,3.33
2022-11-23T14:06:38.650Z,3.20
2022-11-23T14:09:14.901Z,3.50
2022-11-23T14:11:55.981Z,3.58
2022-11-23T14:14:28.928Z,4.00
2022-11-23T14:17:22.639Z,2.95
2022-11-23T14:20:15.330Z,2.95
2022-11-23T14:22:55.793Z,3.10
2022-11-23T14:25:38.877Z,3.40
2022-11-23T14:28:19.097Z,3.83
2022-11-23T14:33:34.038Z,3.22
2022-11-23T14:36:14.444Z,3.42
2022-11-23T14:39:03.300Z,3.75
2022-11-23T14:41:36.278Z,4.18
2022-11-23T14:44:04.812Z,3.75
2022-11-23T14:46:32.824Z,4.13
2022-11-23T14:49:06.835Z,4.10
2022-11-23T14:51:40.728Z,3.85
2022-11-23T14:54:11.325Z,4.35
2022-11-23T14:56:43.903Z,4.60
2022-11-23T14:59:22.392Z,4.53
2022-11-23T15:01:53.074Z,5.40
2022-11-23T15:04:26.505Z,5.38
2022-11-23T15:07:02.379Z,5.55
2022-11-23T15:09:42.817Z,6.35
2022-11-23T15:12:22.543Z,5.78
2022-11-23T15:14:51.715Z,5.10
2022-11-23T15:17:21.818Z,5.28
2022-11-23T15:19:57.238Z,5.00
2022-11-23T15:22:27.117Z,5.57
2022-11-23T15:24:55.699Z,5.70
2022-11-23T15:27:28.710Z,5.85
2022-11-23T15:29:58.438Z,6.00
2022-11-23T15:32:31.867Z,5.63
2022-11-23T15:35:03.759Z,5.53
2022-11-23T15:37:38.199Z,5.20
2022-11-23T15:40:08.345Z,5.30
2022-11-23T15:45:03.870Z,4.82
2022-11-23T15:47:32.242Z,5.63
2022-11-23T15:50:02.498Z,5.28
2022-11-23T15:52:35.148Z,5.75
2022-11-23T15:55:09.314Z,5.30
2022-11-23T15:57:39.164Z,5.70
2022-11-23T16:00:09.472Z,5.72
2022-11-23T16:02:37.967Z,4.72
2022-11-23T16:05:13.737Z,5.55
2022-11-23T16:07:54.726Z,5.43
2022-11-23T16:10:24.572Z,5.20
2022-11-23T16:12:54.187Z,5.00
2022-11-23T16:15:38.499Z,5.45
2022-11-23T16:18:16.861Z,5.60
2022-11-23T16:20:45.610Z,5.75
2022-11-23T16:23:20.316Z,7.22
2022-11-23T16:25:55.284Z,5.30
2022-11-23T16:28:29.074Z,5.00
2022-11-23T16:30:57.921Z,4.53
2022-11-23T16:33:26.304Z,4.75
2022-11-23T16:35:54.176Z,4.55
2022-11-23T16:38:24.306Z,4.63
2022-11-23T16:43:20.246Z,4.32
2022-11-23T16:45:50.707Z,4.10
2022-11-23T16:48:40.711Z,4.60
2022-11-23T16:51:14.203Z,4.85
2022-11-23T16:54:12.374Z,6.32
2022-11-23T16:56:35.787Z,4.95
2022-11-23T16:59:03.950Z,5.05
2022-11-23T17:01:33.629Z,4.68
2022-11-23T17:04:01.699Z,5.20
2022-11-23T17:06:29.779Z,5.50
2022-11-23T17:09:06.212Z,5.15
2022-11-23T17:11:38.358Z,4.93
2022-11-23T17:14:07.491Z,5.35
2022-11-23T17:16:35.417Z,5.20
2022-11-23T17:19:03.398Z,5.75
2022-11-23T17:21:31.225Z,5.25
2022-11-23T17:24:00.411Z,5.38
2022-11-23T17:26:35.541Z,5.87
2022-11-23T17:29:05.751Z,5.78
2022-11-23T17:34:01.255Z,4.68
2022-11-23T17:36:31.568Z,5.20
2022-11-23T17:39:00.845Z,6.22
2022-11-23T17:41:30.077Z,5.87
2022-11-23T17:43:59.372Z,5.20
2022-11-23T17:46:31.497Z,5.27
2022-11-23T17:49:02.507Z,5.25
2022-11-23T17:51:30.572Z,5.45
2022-11-23T17:53:58.398Z,5.00
2022-11-23T17:56:27.705Z,4.78
2022-11-23T17:58:55.789Z,3.97
2022-11-23T18:01:24.846Z,5.13
2022-11-23T18:03:52.888Z,6.00
2022-11-23T18:06:23.052Z,5.80
2022-11-23T18:11:20.016Z,5.35
2022-11-23T18:13:50.558Z,5.03
2022-11-23T18:16:19.956Z,4.90
2022-11-23T18:18:48.178Z,5.07
2022-11-23T18:21:16.286Z,6.18
2022-11-23T18:23:44.511Z,4.88
2022-11-23T18:26:20.510Z,4.50
2022-11-23T18:28:51.100Z,4.57
2022-11-23T18:31:19.860Z,3.72
2022-11-23T18:33:48.272Z,4.07
2022-11-23T18:36:16.549Z,4.63
2022-11-23T18:38:45.910Z,4.22
2022-11-23T18:41:16.168Z,3.92
2022-11-23T18:43:44.149Z,6.28
2022-11-23T18:46:19.033Z,4.63
2022-11-23T18:48:48.906Z,6.75
2022-11-23T18:51:17.974Z,6.20
2022-11-23T18:53:47.670Z,4.90
2022-11-23T18:56:15.769Z,5.28
2022-11-23T18:58:45.326Z,7.22
2022-11-23T19:01:17.767Z,7.50
2022-11-23T19:03:46.965Z,9.27
2022-11-23T19:06:16.722Z,10.73
2022-11-23T19:08:45.940Z,21.27
2022-11-23T19:11:17.706Z,10.48
2022-11-23T19:13:47.065Z,10.80
2022-11-23T19:16:17.733Z,8.45
2022-11-23T19:18:45.685Z,10.85
2022-11-23T19:21:15.029Z,15.25
2022-11-23T19:23:43.484Z,10.18
2022-11-23T19:26:11.870Z,8.30
2022-11-23T19:28:44.513Z,9.15
2022-11-23T19:31:14.016Z,14.68
2022-11-23T19:33:44.159Z,20.98
2022-11-23T19:36:14.368Z,11.77
2022-11-23T19:41:10.172Z,8.10
2022-11-23T19:43:38.293Z,6.75
2022-11-23T19:46:07.798Z,6.78
2022-11-23T19:48:36.065Z,5.78
2022-11-23T19:51:07.052Z,4.15
2022-11-23T19:53:36.938Z,4.45
2022-11-23T19:56:07.549Z,3.90
2022-11-23T19:58:36.033Z,5.30
2022-11-23T20:01:05.562Z,5.10
2022-11-23T20:03:35.977Z,6.82
2022-11-23T20:06:07.477Z,5.15
2022-11-23T20:08:35.513Z,5.13
2022-11-23T20:11:07.669Z,3.50
2022-11-23T20:13:35.846Z,4.18
2022-11-23T20:16:07.392Z,3.90
2022-11-23T20:18:35.913Z,4.15
2022-11-23T20:21:05.669Z,3.40
2022-11-23T20:23:33.516Z,4.53
2022-11-23T20:26:01.388Z,3.75
2022-11-23T20:28:29.581Z,4.10
2022-11-23T20:30:57.806Z,4.90
2022-11-23T20:33:25.743Z,6.97
2022-11-23T20:35:53.578Z,3.35
2022-11-23T20:38:22.753Z,4.20
2022-11-23T20:40:50.630Z,3.65
2022-11-23T20:43:18.606Z,3.40
2022-11-23T20:45:46.471Z,4.85
2022-11-23T20:48:14.453Z,5.03
2022-11-23T20:50:42.784Z,3.60
2022-11-23T20:53:10.632Z,4.18
2022-11-23T20:55:39.817Z,5.57
2022-11-23T20:58:08.147Z,3.67
2022-11-23T21:00:35.957Z,3.85
2022-11-23T21:03:04.220Z,4.28
2022-11-23T21:05:32.106Z,5.18
2022-11-23T21:08:00.126Z,7.20
2022-11-23T21:10:45.786Z,5.95
2022-11-23T21:13:48.656Z,4.35
2022-11-23T21:16:17.100Z,4.15
2022-11-23T21:18:44.973Z,3.65
2022-11-23T21:21:12.919Z,4.00
2022-11-23T21:23:40.750Z,3.90
2022-11-23T21:26:08.579Z,4.78
2022-11-23T21:28:37.906Z,4.15
2022-11-23T21:31:08.795Z,3.88
2022-11-23T21:33:37.318Z,4.43
2022-11-23T21:36:06.035Z,3.60
2022-11-23T21:38:38.542Z,4.53
2022-11-23T21:41:08.737Z,3.30
2022-11-23T21:46:08.077Z,3.17
2022-11-23T21:48:36.546Z,2.25
2022-11-23T21:51:06.400Z,3.47
2022-11-23T21:53:35.266Z,4.00
2022-11-23T21:56:04.359Z,3.05
2022-11-23T21:58:33.396Z,3.00
2022-11-23T22:01:07.619Z,2.80
2022-11-23T22:03:39.729Z,2.78
2022-11-23T22:06:08.869Z,2.90
2022-11-23T22:08:40.720Z,2.60
2022-11-23T22:11:12.609Z,2.40
2022-11-23T22:13:40.838Z,2.80
2022-11-23T22:16:19.219Z,2.63
2022-11-23T22:18:52.622Z,2.35
2022-11-23T22:21:24.380Z,2.10
2022-11-23T22:23:52.538Z,2.20
2022-11-23T22:26:21.345Z,2.45
2022-11-23T22:28:51.714Z,2.65
2022-11-23T22:31:23.523Z,2.88
2022-11-23T22:33:53.227Z,2.58
2022-11-23T22:36:22.713Z,2.58
2022-11-23T22:39:00.826Z,2.65
2022-11-23T22:41:29.974Z,3.17
2022-11-23T22:43:58.166Z,2.40
2022-11-23T22:46:27.919Z,2.97
2022-11-23T22:48:59.475Z,3.00
2022-11-23T22:51:29.022Z,3.30
2022-11-23T22:53:58.037Z,2.80
2022-11-23T22:56:26.888Z,2.90
2022-11-23T22:58:54.919Z,2.35
2022-11-23T23:01:24.528Z,2.40
2022-11-23T23:03:56.219Z,2.20
2022-11-23T23:06:26.533Z,2.33
2022-11-23T23:11:24.159Z,2.10
2022-11-23T23:13:52.583Z,2.45
2022-11-23T23:16:20.917Z,2.42
2022-11-23T23:18:49.584Z,2.88
2022-11-23T23:21:21.056Z,3.42
2022-11-23T23:23:50.252Z,2.95
2022-11-23T23:26:20.466Z,2.70
2022-11-23T23:31:18.255Z,3.05
2022-11-23T23:33:46.775Z,2.90
2022-11-23T23:36:16.241Z,2.90
2022-11-23T23:38:45.571Z,2.85
2022-11-23T23:41:14.740Z,3.00
2022-11-23T23:43:43.272Z,2.63
2022-11-23T23:46:12.560Z,2.75
2022-11-23T23:48:41.241Z,2.78
2022-11-23T23:51:12.215Z,2.72
2022-11-23T23:53:40.794Z,2.80
2022-11-23T23:56:14.289Z,2.58
2022-11-23T23:58:42.520Z,2.10
